Time;durP1;ratioP1;P1;durP2;ratioP2;P2;SDS_P1;SDS_P2;PMS_P1;PMS_P2;Temp;Humidity;BMP_temperature;BMP_pressure;BME280_temperature;BME280_humidity;BME280_pressure;Samples;Min_cycle;Max_cycle;Signal;HPM_P1;HPM_P2
2021/05/31 00:01:00;;;;;;;5.86;1.88;;;;;;;10.40;74.20;99853.41;2020942;77;21402;-73
2021/05/31 00:04:03;;;;;;;3.24;1.92;;;;;;;10.35;74.54;99847.34;2022204;80;20755;-72
2021/05/31 00:07:12;;;;;;;4.90;2.00;;;;;;;10.31;74.56;99846.47;2021393;80;20230;-72
2021/05/31 00:10:15;;;;;;;5.57;2.96;;;;;;;10.26;74.28;99851.66;2022057;80;20204;-73
2021/05/31 00:13:18;;;;;;;2.45;2.24;;;;;;;10.21;74.82;99844.69;2022178;80;21148;-72
2021/05/31 00:16:21;;;;;;;4.28;2.33;;;;;;;10.15;74.58;99842.91;2021281;77;20208;-72
2021/05/31 00:19:23;;;;;;;4.04;2.28;;;;;;;10.09;74.65;99842.91;2021385;80;20178;-72
2021/05/31 00:22:26;;;;;;;3.79;2.35;;;;;;;10.02;74.57;99835.91;2021833;80;20196;-72
2021/05/31 00:25:29;;;;;;;5.64;2.51;;;;;;;9.99;74.44;99828.13;2022341;80;20282;-72
2021/05/31 00:28:31;;;;;;;6.28;2.41;;;;;;;9.92;74.69;99842.81;2021649;80;20203;-72
2021/05/31 00:31:34;;;;;;;4.09;2.26;;;;;;;9.85;74.73;99835.84;2020931;77;20465;-73
2021/05/31 00:34:39;;;;;;;4.20;2.50;;;;;;;9.80;75.11;99831.50;2021623;80;20178;-74
2021/05/31 00:37:42;;;;;;;5.50;2.60;;;;;;;9.74;75.24;99839.25;2021595;80;20691;-72
2021/05/31 00:40:45;;;;;;;5.01;2.45;;;;;;;9.67;75.09;99831.41;2022065;80;20256;-72
2021/05/31 00:43:48;;;;;;;5.44;3.01;;;;;;;9.59;75.45;99830.50;2021900;80;20733;-72
2021/05/31 00:46:52;;;;;;;4.79;2.46;;;;;;;9.52;75.80;99833.06;2020554;77;22215;-75
2021/05/31 00:49:57;;;;;;;3.92;2.60;;;;;;;9.44;76.13;99826.94;2022137;80;20185;-72
2021/05/31 00:53:00;;;;;;;7.03;2.72;;;;;;;9.37;76.26;99831.22;2021455;80;20199;-72
2021/05/31 00:56:04;;;;;;;5.93;2.86;;;;;;;9.34;76.88;99833.78;2022278;80;20167;-72
2021/05/31 00:59:08;;;;;;;4.82;2.78;;;;;;;9.30;76.96;99834.59;2021780;80;20204;-72
2021/05/31 01:02:11;;;;;;;3.94;2.24;;;;;;;9.25;77.04;99839.75;2020907;77;20643;-71
2021/05/31 01:05:15;;;;;;;5.06;2.84;;;;;;;9.21;77.39;99831.94;2024488;80;20215;-72
2021/05/31 01:08:23;;;;;;;6.95;2.65;;;;;;;9.15;77.51;99837.06;2021836;80;20224;-72
2021/05/31 01:11:41;;;;;;;4.30;2.19;;;;;;;9.07;77.75;99832.69;2021470;80;20193;-72
2021/05/31 01:15:01;;;;;;;5.26;2.23;;;;;;;9.04;78.47;99835.25;2021957;80;20201;-72
2021/05/31 01:18:21;;;;;;;3.59;1.99;;;;;;;9.00;78.75;99832.63;2016725;77;20891;-72
2021/05/31 01:21:35;;;;;;;2.55;1.92;;;;;;;8.97;78.83;99835.16;2017591;80;20188;-72
2021/05/31 01:24:51;;;;;;;2.42;1.99;;;;;;;8.90;78.99;99833.41;2016810;80;20561;-72
2021/05/31 01:28:12;;;;;;;3.39;1.69;;;;;;;8.78;79.19;99829.81;2017576;80;20243;-71
2021/05/31 01:31:17;;;;;;;1.94;1.70;;;;;;;8.75;79.46;99829.78;2016957;80;20646;-71
2021/05/31 01:34:26;;;;;;;2.40;1.65;;;;;;;8.70;79.67;99830.63;2017087;80;20199;-72
2021/05/31 01:37:31;;;;;;;2.97;2.00;;;;;;;8.62;79.46;99834.84;2020394;80;20199;-73
2021/05/31 01:40:34;;;;;;;3.35;1.95;;;;;;;8.53;79.43;99826.97;2016770;80;20238;-72
2021/05/31 01:43:38;;;;;;;3.63;2.35;;;;;;;8.44;79.51;99835.53;2017289;80;20696;-72
2021/05/31 01:46:41;;;;;;;2.04;1.84;;;;;;;8.40;79.87;99836.31;2019111;77;20729;-74
2021/05/31 01:49:44;;;;;;;2.30;1.79;;;;;;;8.38;79.96;99830.25;2022450;80;21237;-72
2021/05/31 01:52:48;;;;;;;3.55;2.01;;;;;;;8.32;79.98;99827.59;2022305;80;20213;-72
2021/05/31 01:55:51;;;;;;;3.30;2.15;;;;;;;8.28;80.05;99831.00;2021927;80;20764;-72
2021/05/31 01:58:55;;;;;;;6.20;2.15;;;;;;;8.20;80.00;99825.72;2022721;80;20226;-72
2021/05/31 02:01:58;;;;;;;3.05;1.94;;;;;;;8.18;80.21;99817.06;2021852;80;23573;-72
2021/05/31 02:05:01;;;;;;;2.63;2.19;;;;;;;8.15;80.30;99824.78;2022910;80;20227;-72
2021/05/31 02:08:04;;;;;;;2.90;2.14;;;;;;;8.09;80.25;99816.97;2023479;80;20223;-72
2021/05/31 02:11:35;;;;;;;1.71;1.61;;;;;;;8.07;80.85;99816.06;2023848;80;20203;-71
2021/05/31 02:14:53;;;;;;;3.60;2.40;;;;;;;8.03;81.24;99809.13;2023929;80;20224;-71
2021/05/31 02:18:05;;;;;;;3.00;1.99;;;;;;;8.00;81.32;99811.66;2022676;78;23383;-72
2021/05/31 02:21:10;;;;;;;6.07;2.17;;;;;;;7.96;81.08;99804.72;2023835;80;20206;-71
2021/05/31 02:24:14;;;;;;;3.09;2.11;;;;;;;7.91;80.95;99803.81;2024061;80;20256;-71
2021/05/31 02:27:16;;;;;;;3.75;1.89;;;;;;;7.88;81.04;99810.66;2023746;80;20693;-71
2021/05/31 02:30:21;;;;;;;2.38;1.96;;;;;;;7.87;81.19;99811.50;2023022;77;26435;-72
2021/05/31 02:33:24;;;;;;;3.19;1.80;;;;;;;7.83;81.37;99816.63;2024016;80;20392;-72
2021/05/31 02:36:27;;;;;;;2.50;1.81;;;;;;;7.85;81.70;99807.16;2024622;80;20171;-71
2021/05/31 02:39:30;;;;;;;1.96;1.81;;;;;;;7.77;81.44;99806.19;2024832;80;20263;-71
2021/05/31 02:42:41;;;;;;;3.44;1.83;;;;;;;7.71;81.40;99804.38;2024012;80;20191;-71
2021/05/31 02:45:44;;;;;;;1.76;1.66;;;;;;;7.68;81.42;99812.09;2023731;80;24113;-72
2021/05/31 02:48:46;;;;;;;2.50;1.88;;;;;;;7.65;81.52;99814.66;2023742;80;20193;-71
2021/05/31 02:51:49;;;;;;;6.57;1.74;;;;;;;7.63;81.70;99818.94;2023341;80;20200;-72
2021/05/31 02:54:52;;;;;;;2.00;1.66;;;;;;;7.60;81.77;99818.03;2024048;80;20193;-72
2021/05/31 02:57:55;;;;;;;1.95;1.74;;;;;;;7.56;82.06;99812.81;2023876;80;20186;-71
2021/05/31 03:00:58;;;;;;;2.03;1.50;;;;;;;7.54;82.12;99813.63;2022399;77;23597;-72
2021/05/31 03:04:04;;;;;;;2.10;1.42;;;;;;;7.47;82.01;99804.03;2022874;80;20215;-71
2021/05/31 03:07:06;;;;;;;1.70;1.50;;;;;;;7.42;82.11;99813.47;2022519;80;20218;-71
2021/05/31 03:10:10;;;;;;;1.85;1.67;;;;;;;7.40;82.18;99812.56;2022772;80;20159;-72
2021/05/31 03:13:13;;;;;;;1.94;1.40;;;;;;;7.35;82.11;99809.88;2022886;80;20183;-72
2021/05/31 03:16:16;;;;;;;4.35;1.48;;;;;;;7.35;82.10;99809.03;2021085;80;21708;-72
2021/05/31 03:19:18;;;;;;;2.75;1.42;;;;;;;7.32;82.29;99814.16;2022749;80;20195;-72
2021/05/31 03:22:21;;;;;;;3.86;1.73;;;;;;;7.33;82.17;99815.88;2022359;80;20640;-72
2021/05/31 03:25:24;;;;;;;6.56;1.76;;;;;;;7.28;82.10;99814.09;2022041;80;20312;-72
2021/05/31 03:28:27;;;;;;;2.21;1.50;;;;;;;7.22;81.96;99816.59;2023077;80;20335;-72
2021/05/31 03:31:29;;;;;;;3.54;1.51;;;;;;;7.21;82.00;99817.44;2020795;78;23750;-72
2021/05/31 03:34:32;;;;;;;1.94;1.41;;;;;;;7.19;82.34;99818.28;2022632;80;20289;-72
2021/05/31 03:37:35;;;;;;;1.86;1.70;;;;;;;7.18;82.58;99817.41;2022674;80;21238;-72
2021/05/31 03:40:38;;;;;;;1.69;1.56;;;;;;;7.17;82.47;99818.22;2022848;80;20190;-72
2021/05/31 03:43:40;;;;;;;2.30;1.40;;;;;;;7.16;82.44;99813.91;2022224;80;20187;-72
2021/05/31 03:46:43;;;;;;;2.80;1.50;;;;;;;7.20;82.45;99820.88;2020900;77;21102;-72
2021/05/31 03:49:45;;;;;;;1.88;1.31;;;;;;;7.20;82.88;99817.44;2022336;80;20333;-71
2021/05/31 03:52:49;;;;;;;2.50;1.36;;;;;;;7.19;83.01;99819.13;2022348;80;20870;-72
2021/05/31 03:55:52;;;;;;;4.04;1.85;;;;;;;7.16;83.45;99819.06;2022498;80;20896;-72
2021/05/31 03:58:54;;;;;;;2.22;1.51;;;;;;;7.12;83.39;99824.16;2022077;80;20269;-72
2021/05/31 04:01:57;;;;;;;2.11;1.46;;;;;;;7.15;83.48;99826.78;2021662;77;22160;-72
2021/05/31 04:05:01;;;;;;;3.31;1.74;;;;;;;7.16;83.54;99816.47;2022370;80;20300;-72
2021/05/31 04:11:37;;;;;;;2.21;1.86;;;;;;;7.20;83.51;99825.19;2021588;80;20167;-72
2021/05/31 04:14:41;;;;;;;5.26;1.73;;;;;;;7.24;83.60;99830.41;2022067;80;20163;-71
2021/05/31 04:17:44;;;;;;;3.21;2.54;;;;;;;7.29;83.65;99830.47;2021490;78;20212;-72
2021/05/31 04:20:47;;;;;;;1.64;1.36;;;;;;;7.29;83.46;99822.72;2021475;80;21274;-72
2021/05/31 04:23:49;;;;;;;3.94;1.94;;;;;;;7.35;83.46;99816.78;2022089;80;20182;-72
2021/05/31 04:26:52;;;;;;;2.11;1.79;;;;;;;7.42;83.43;99822.06;2021988;80;20989;-72
2021/05/31 04:29:55;;;;;;;3.19;1.66;;;;;;;7.51;83.58;99827.34;2021625;80;20329;-72
2021/05/31 04:32:57;;;;;;;2.00;1.80;;;;;;;7.62;83.30;99822.34;2021909;77;21090;-72
2021/05/31 04:36:00;;;;;;;3.09;1.73;;;;;;;7.77;83.20;99816.53;2022318;80;20652;-72
2021/05/31 04:39:06;;;;;;;1.64;1.54;;;;;;;7.89;82.97;99816.69;2021770;80;20182;-72
2021/05/31 04:42:08;;;;;;;2.71;1.60;;;;;;;8.04;82.58;99821.19;2022549;80;20662;-72
2021/05/31 04:45:12;;;;;;;2.16;1.73;;;;;;;8.21;82.04;99821.41;2021401;80;20671;-72
2021/05/31 04:48:15;;;;;;;2.81;1.34;;;;;;;8.41;81.97;99817.34;2022137;78;22954;-72
2021/05/31 04:51:18;;;;;;;1.76;1.52;;;;;;;8.60;81.26;99811.50;2022125;80;20171;-73
2021/05/31 04:54:20;;;;;;;3.83;1.50;;;;;;;8.84;80.68;99816.09;2023055;80;20268;-72
2021/05/31 04:57:23;;;;;;;1.98;1.50;;;;;;;9.10;79.92;99821.47;2022561;80;20301;-72
2021/05/31 05:00:25;;;;;;;2.31;1.81;;;;;;;9.44;79.03;99813.97;2021499;80;20734;-72
2021/05/31 05:03:28;;;;;;;2.94;1.59;;;;;;;9.84;77.84;99808.16;2022582;80;20228;-72
2021/05/31 05:06:30;;;;;;;2.53;1.58;;;;;;;10.34;76.15;99814.47;2022656;80;20191;-72
2021/05/31 05:09:33;;;;;;;1.73;1.16;;;;;;;10.75;73.94;99819.75;2023287;80;20619;-72
2021/05/31 05:12:35;;;;;;;1.75;1.20;;;;;;;11.11;72.72;99822.41;2022885;80;20199;-73
2021/05/31 05:15:38;;;;;;;3.88;1.19;;;;;;;11.48;71.49;99822.38;2021955;78;21599;-72
2021/05/31 05:18:49;;;;;;;4.46;1.25;;;;;;;11.84;70.50;99828.41;2026369;80;20305;-72
2021/05/31 05:21:52;;;;;;;2.61;1.39;;;;;;;12.10;69.78;99822.28;2022236;80;20234;-73
2021/05/31 05:24:54;;;;;;;3.92;1.71;;;;;;;12.35;68.92;99810.00;2022771;80;20199;-73
2021/05/31 05:27:57;;;;;;;5.10;1.65;;;;;;;12.60;68.24;99813.38;2023158;80;20175;-72
2021/05/31 05:31:03;;;;;;;3.40;1.50;;;;;;;12.96;67.36;99820.06;2021633;80;20223;-73
2021/05/31 05:34:06;;;;;;;2.90;1.41;;;;;;;13.60;65.36;99816.06;2023345;80;20204;-73
2021/05/31 05:37:13;;;;;;;3.14;1.60;;;;;;;14.46;62.46;99813.38;2023493;80;20206;-73
2021/05/31 05:50:18;;;;;;;4.05;1.23;;;;;;;16.39;55.42;99813.56;2022630;80;20185;-72
2021/05/31 05:53:20;;;;;;;2.28;1.24;;;;;;;16.73;54.21;99809.31;2022937;80;20222;-72
2021/05/31 05:56:23;;;;;;;2.16;1.26;;;;;;;17.00;52.59;99812.19;2022868;80;20187;-73
2021/05/31 05:59:25;;;;;;;2.34;1.40;;;;;;;17.22;51.21;99816.00;2023241;80;20201;-73
2021/05/31 06:02:28;;;;;;;2.70;1.10;;;;;;;17.48;47.88;99816.25;2022863;77;27214;-72
2021/05/31 06:05:31;;;;;;;3.22;1.13;;;;;;;17.93;47.20;99810.69;2023889;80;20175;-73
2021/05/31 06:08:36;;;;;;;4.41;1.19;;;;;;;18.36;45.67;99820.00;2023123;80;20547;-73
2021/05/31 06:11:39;;;;;;;4.32;1.89;;;;;;;18.61;44.91;99813.09;2023074;80;20227;-73
2021/05/31 06:14:42;;;;;;;3.13;1.70;;;;;;;18.81;44.16;99812.50;2022495;80;20532;-73
2021/05/31 06:17:45;;;;;;;7.36;1.99;;;;;;;18.98;43.60;99815.47;2021688;80;56147;-74
2021/05/31 06:20:48;;;;;;;5.43;2.08;;;;;;;19.17;42.77;99809.59;2022967;80;20220;-74
2021/05/31 06:23:51;;;;;;;4.01;2.05;;;;;;;19.43;42.41;99820.16;2023052;80;20690;-75
2021/05/31 06:26:54;;;;;;;6.54;2.94;;;;;;;19.64;42.12;99818.59;2022773;80;20220;-74
2021/05/31 06:29:56;;;;;;;8.05;2.10;;;;;;;19.80;42.04;99816.28;2022916;80;20713;-74
2021/05/31 06:32:59;;;;;;;5.01;1.66;;;;;;;19.85;40.85;99815.19;2022439;78;22953;-75
2021/05/31 06:36:07;;;;;;;3.75;1.30;;;;;;;20.03;40.31;99816.31;2022850;80;20330;-75
2021/05/31 06:39:11;;;;;;;2.67;1.35;;;;;;;20.12;39.97;99802.81;2023581;80;20232;-74
2021/05/31 06:42:13;;;;;;;2.86;0.94;;;;;;;20.24;38.64;99806.75;2021417;80;20602;-74
2021/05/31 06:45:23;;;;;;;4.55;1.10;;;;;;;20.36;39.07;99808.06;2021308;80;20252;-74
2021/05/31 06:48:26;;;;;;;4.86;1.00;;;;;;;20.52;37.49;99809.25;2022082;80;20192;-74
2021/05/31 06:51:29;;;;;;;2.70;1.00;;;;;;;20.42;37.73;99807.88;2022942;80;20637;-75
2021/05/31 06:54:32;;;;;;;1.34;0.80;;;;;;;20.43;36.58;99802.53;2023583;80;20197;-74
2021/05/31 06:57:35;;;;;;;3.80;0.70;;;;;;;20.57;36.35;99804.63;2022772;80;20290;-75
2021/05/31 07:00:39;;;;;;;1.50;0.88;;;;;;;20.84;36.35;99808.00;2023457;77;21250;-74
2021/05/31 07:03:41;;;;;;;1.19;0.80;;;;;;;21.02;34.72;99803.75;2023256;80;20256;-75
2021/05/31 07:06:45;;;;;;;5.50;1.46;;;;;;;21.01;34.76;99802.03;2023109;80;20335;-75
2021/05/31 07:09:48;;;;;;;0.75;0.69;;;;;;;21.12;34.54;99800.66;2023002;80;20230;-75
2021/05/31 07:12:51;;;;;;;3.96;0.77;;;;;;;21.28;33.69;99806.22;2022556;80;20204;-73
2021/05/31 07:15:54;;;;;;;2.94;0.70;;;;;;;21.38;33.29;99804.06;2020401;77;21004;-73
2021/05/31 07:18:57;;;;;;;7.72;1.00;;;;;;;21.44;33.45;99802.94;2022165;80;20211;-73
2021/05/31 07:22:01;;;;;;;0.91;0.61;;;;;;;21.50;33.81;99794.72;2023143;80;20175;-73
2021/05/31 07:25:05;;;;;;;0.88;0.70;;;;;;;21.42;32.95;99803.84;2022252;80;20513;-73
2021/05/31 07:28:08;;;;;;;1.23;0.61;;;;;;;21.35;32.35;99788.31;2022703;80;20216;-74
2021/05/31 07:31:11;;;;;;;0.74;0.50;;;;;;;21.38;32.90;99797.00;2022399;78;22325;-72
2021/05/31 07:34:13;;;;;;;2.30;0.70;;;;;;;21.40;32.46;99795.13;2018938;80;20188;-73
2021/05/31 07:37:17;;;;;;;4.68;0.77;;;;;;;21.66;32.63;99791.38;2023187;80;20182;-72
2021/05/31 07:40:21;;;;;;;2.70;0.91;;;;;;;21.91;32.70;99785.03;2022034;80;20240;-75
2021/05/31 07:43:24;;;;;;;2.29;0.60;;;;;;;21.97;31.52;99782.94;2023186;80;20259;-74
2021/05/31 07:46:27;;;;;;;1.66;0.85;;;;;;;21.97;32.19;99796.19;2019225;78;20386;-74
2021/05/31 07:49:30;;;;;;;2.14;0.80;;;;;;;21.93;31.62;99788.47;2017677;80;20674;-73
2021/05/31 07:52:33;;;;;;;2.55;0.70;;;;;;;21.96;31.54;99789.16;2018059;80;20195;-73
2021/05/31 07:55:35;;;;;;;1.25;0.65;;;;;;;21.97;32.43;99782.09;2017190;80;20232;-74
2021/05/31 07:58:41;;;;;;;3.71;0.93;;;;;;;22.06;31.45;99786.13;2016804;80;20280;-73
2021/05/31 08:01:44;;;;;;;2.09;0.80;;;;;;;21.92;32.36;99779.66;2016400;78;22403;-74
2021/05/31 08:04:46;;;;;;;1.86;0.61;;;;;;;22.03;31.82;99784.44;2017168;80;20712;-73
2021/05/31 08:07:49;;;;;;;1.60;0.70;;;;;;;22.18;31.34;99780.28;2016825;80;20187;-74
2021/05/31 08:10:52;;;;;;;2.29;0.80;;;;;;;22.31;31.32;99776.16;2017025;80;20156;-73
2021/05/31 08:13:55;;;;;;;1.02;0.66;;;;;;;22.46;31.40;99778.09;2017191;80;20275;-73
2021/05/31 08:16:58;;;;;;;2.08;0.80;;;;;;;22.52;30.41;99774.28;2019150;77;23711;-73
2021/05/31 08:20:01;;;;;;;2.17;1.01;;;;;;;22.57;30.55;99772.28;2022648;80;20188;-74
2021/05/31 08:23:04;;;;;;;2.34;0.81;;;;;;;22.69;30.24;99763.75;2022090;80;20185;-73
2021/05/31 08:26:07;;;;;;;5.74;1.40;;;;;;;22.77;30.28;99766.03;2023058;80;20206;-74
2021/05/31 08:29:10;;;;;;;3.91;1.13;;;;;;;22.94;30.10;99762.59;2023026;80;20190;-74
2021/05/31 08:32:15;;;;;;;2.83;0.90;;;;;;;22.99;29.29;99768.53;2016905;78;20678;-74
2021/05/31 08:35:17;;;;;;;1.29;0.73;;;;;;;23.02;30.34;99765.75;2021721;80;20263;-73
2021/05/31 08:38:20;;;;;;;3.92;0.60;;;;;;;23.09;30.38;99762.69;2021967;80;20170;-74
2021/05/31 08:41:25;;;;;;;1.80;0.76;;;;;;;23.23;29.05;99777.06;2021395;80;20190;-74
2021/05/31 08:44:30;;;;;;;1.24;0.61;;;;;;;23.20;28.83;99763.03;2022801;80;20224;-73
2021/05/31 08:47:39;;;;;;;2.21;0.55;;;;;;;23.30;28.66;99768.72;2020831;78;20182;-74
2021/05/31 08:50:41;;;;;;;1.13;0.55;;;;;;;23.26;28.77;99768.94;2022697;80;20761;-74
2021/05/31 08:53:45;;;;;;;0.70;0.70;;;;;;;23.26;29.36;99766.28;2022528;80;20232;-74
2021/05/31 08:56:49;;;;;;;0.70;0.70;;;;;;;23.27;29.11;99757.41;2021043;80;21160;-74
2021/05/31 08:59:53;;;;;;;1.84;0.50;;;;;;;23.35;29.09;99748.16;2023485;80;20211;-77
2021/05/31 09:03:02;;;;;;;3.21;0.51;;;;;;;23.50;29.25;99757.09;2021162;77;20220;-78
2021/05/31 09:06:09;;;;;;;0.70;0.50;;;;;;;23.55;29.18;99760.38;2021700;80;20205;-77
2021/05/31 09:09:11;;;;;;;0.65;0.50;;;;;;;23.41;27.84;99753.13;2020967;80;20174;-77
2021/05/31 09:12:22;;;;;;;1.04;0.60;;;;;;;23.34;27.61;99745.56;2021460;80;20761;-78
2021/05/31 09:15:24;;;;;;;2.01;0.66;;;;;;;23.27;28.28;99738.88;2020444;77;20434;-77
2021/05/31 09:18:27;;;;;;;1.89;1.08;;;;;;;23.31;28.53;99738.63;2021907;80;20198;-77
2021/05/31 09:21:42;;;;;;;1.24;0.44;;;;;;;23.33;28.92;99741.19;2020867;80;20179;-78
2021/05/31 09:25:04;;;;;;;2.39;0.52;;;;;;;23.43;27.85;99743.31;2022653;80;20191;-77
2021/05/31 09:28:12;;;;;;;1.98;0.49;;;;;;;23.61;28.24;99733.56;2020668;80;20227;-78
2021/05/31 09:31:16;;;;;;;1.61;0.45;;;;;;;23.68;27.74;99731.44;2020776;80;20215;-76
2021/05/31 09:34:19;;;;;;;1.41;0.60;;;;;;;23.97;27.77;99724.59;2020708;80;20179;-77
2021/05/31 09:37:22;;;;;;;0.77;0.50;;;;;;;24.10;26.58;99729.16;2020838;80;21119;-76
2021/05/31 09:40:26;;;;;;;1.23;0.50;;;;;;;24.04;26.28;99710.91;2022303;80;20273;-77
2021/05/31 09:43:31;;;;;;;1.70;0.60;;;;;;;24.14;26.67;99716.56;2022561;80;20289;-77
2021/05/31 09:46:42;;;;;;;1.08;0.80;;;;;;;24.21;25.47;99717.94;2021976;77;21688;-76
2021/05/31 09:49:44;;;;;;;2.40;0.60;;;;;;;24.23;26.16;99721.38;2023201;80;20193;-76
2021/05/31 09:52:47;;;;;;;2.39;0.60;;;;;;;24.26;25.71;99715.91;2023313;80;20891;-76
2021/05/31 09:55:50;;;;;;;2.61;0.80;;;;;;;24.34;25.54;99719.00;2023006;80;20307;-76
2021/05/31 09:59:04;;;;;;;1.44;0.80;;;;;;;24.45;25.06;99723.75;2022476;80;20183;-77
2021/05/31 10:02:08;;;;;;;0.76;0.60;;;;;;;24.49;24.77;99712.00;2022149;77;25198;-76
2021/05/31 10:11:31;;;;;;;2.94;0.96;;;;;;;24.66;24.94;99719.88;2022624;80;20178;-76
2021/05/31 10:14:34;;;;;;;2.16;0.95;;;;;;;24.68;24.62;99717.97;2022839;80;20310;-76
2021/05/31 10:17:37;;;;;;;2.56;0.77;;;;;;;24.85;24.48;99718.81;2021822;77;22872;-76
2021/05/31 10:20:41;;;;;;;2.96;0.85;;;;;;;25.00;24.41;99712.63;2023426;80;20191;-76
2021/05/31 10:23:44;;;;;;;2.21;0.50;;;;;;;24.98;24.68;99706.53;2023995;80;20240;-76
2021/05/31 10:26:47;;;;;;;0.99;0.89;;;;;;;25.02;24.56;99702.78;2022100;80;20220;-76
2021/05/31 10:29:50;;;;;;;5.89;0.85;;;;;;;25.02;24.28;99700.13;2023197;80;20684;-76
2021/05/31 10:32:52;;;;;;;4.29;1.00;;;;;;;25.11;24.66;99704.00;2021782;77;20278;-76
2021/05/31 10:36:08;;;;;;;2.33;0.91;;;;;;;25.34;25.02;99702.66;2020625;80;20717;-76
2021/05/31 10:39:27;;;;;;;3.42;1.11;;;;;;;25.42;23.75;99700.38;2022981;80;20265;-75
2021/05/31 10:42:51;;;;;;;5.64;1.74;;;;;;;25.37;22.89;99705.13;2022762;80;20238;-76
2021/05/31 10:46:04;;;;;;;6.53;1.54;;;;;;;25.29;21.78;99698.47;2021934;77;24991;-76
2021/05/31 10:49:07;;;;;;;7.32;2.08;;;;;;;25.29;23.05;99694.94;2023097;80;20285;-76
2021/05/31 10:52:19;;;;;;;3.47;0.86;;;;;;;25.48;23.52;99692.88;2022866;80;20171;-78
2021/05/31 10:55:23;;;;;;;3.54;0.94;;;;;;;25.50;22.64;99688.34;2023523;80;20298;-77
2021/05/31 10:58:32;;;;;;;5.14;0.98;;;;;;;25.58;22.16;99690.53;2022890;80;20220;-77
2021/05/31 11:01:39;;;;;;;2.11;0.96;;;;;;;25.63;22.64;99683.09;2022020;78;22417;-76
2021/05/31 11:04:42;;;;;;;1.89;0.60;;;;;;;25.65;23.13;99681.22;2021954;80;20924;-76
2021/05/31 11:07:55;;;;;;;2.03;0.50;;;;;;;25.80;22.43;99685.63;2022394;80;20215;-76
2021/05/31 11:11:00;;;;;;;1.06;0.54;;;;;;;25.84;22.16;99686.28;2023325;80;20200;-76
2021/05/31 11:14:05;;;;;;;4.56;0.60;;;;;;;25.80;22.12;99671.47;2019614;80;20175;-76
2021/05/31 11:17:09;;;;;;;1.76;0.60;;;;;;;25.90;23.12;99660.16;2021631;77;20199;-76
2021/05/31 11:20:12;;;;;;;3.85;0.70;;;;;;;25.93;22.72;99656.44;2023171;80;20939;-76
2021/05/31 11:23:15;;;;;;;3.03;0.70;;;;;;;26.05;22.71;99668.13;2022323;80;20182;-76
2021/05/31 11:26:19;;;;;;;1.24;0.50;;;;;;;26.06;22.77;99664.50;2022763;80;20212;-76
2021/05/31 11:29:22;;;;;;;1.15;0.50;;;;;;;26.02;22.34;99669.16;2023022;80;20194;-76
2021/05/31 11:32:25;;;;;;;0.80;0.50;;;;;;;25.92;22.78;99668.03;2021615;80;22728;-77
2021/05/31 11:35:35;;;;;;;2.91;0.50;;;;;;;25.95;23.65;99662.53;2021615;80;20270;-76
2021/05/31 11:38:40;;;;;;;0.75;0.47;;;;;;;26.13;22.57;99668.47;2021242;80;20171;-76
2021/05/31 11:41:51;;;;;;;3.95;0.66;;;;;;;26.15;22.18;99663.91;2023185;80;20182;-76
2021/05/31 11:44:57;;;;;;;1.42;0.50;;;;;;;26.11;22.07;99657.06;2023443;80;20625;-77
2021/05/31 11:48:03;;;;;;;0.77;0.40;;;;;;;26.27;23.45;99655.13;2022031;80;21879;-75
2021/05/31 11:51:05;;;;;;;5.28;0.80;;;;;;;26.33;22.11;99643.22;2023023;80;20199;-76
2021/05/31 11:54:12;;;;;;;2.26;0.60;;;;;;;26.26;21.76;99644.59;2022399;80;20685;-76
2021/05/31 11:57:20;;;;;;;1.09;0.50;;;;;;;26.38;22.65;99630.50;2023254;80;20235;-76
2021/05/31 12:00:31;;;;;;;1.78;0.60;;;;;;;26.45;22.27;99630.00;2021866;77;22026;-77
2021/05/31 12:03:37;;;;;;;8.48;0.57;;;;;;;26.57;22.42;99641.66;2022710;80;20175;-76
2021/05/31 12:06:40;;;;;;;2.51;0.50;;;;;;;26.65;21.39;99634.00;2022849;80;20705;-77
2021/05/31 12:09:44;;;;;;;1.88;0.59;;;;;;;26.68;21.69;99628.47;2023449;80;20196;-77
2021/05/31 12:12:48;;;;;;;3.19;0.66;;;;;;;26.59;21.68;99625.56;2022739;80;20219;-76
2021/05/31 12:15:50;;;;;;;2.61;0.60;;;;;;;26.60;21.75;99629.94;2021584;80;34583;-78
2021/05/31 12:18:53;;;;;;;0.96;0.50;;;;;;;26.61;22.54;99610.34;2023180;80;20167;-77
2021/05/31 12:22:03;;;;;;;4.28;0.60;;;;;;;26.65;22.34;99612.69;2022653;80;20170;-77
2021/05/31 12:25:09;;;;;;;0.94;0.50;;;;;;;26.72;21.84;99621.97;2022337;80;20166;-77
2021/05/31 12:28:14;;;;;;;2.74;0.47;;;;;;;26.70;21.10;99618.56;2022525;80;20167;-76
2021/05/31 12:31:16;;;;;;;4.22;0.56;;;;;;;26.65;21.49;99604.69;2021519;77;20171;-76
2021/05/31 12:34:26;;;;;;;4.06;0.65;;;;;;;26.82;22.82;99613.38;2022985;80;21369;-77
2021/05/31 12:37:35;;;;;;;9.02;0.50;;;;;;;26.69;21.36;99598.19;2022763;80;20183;-75
2021/05/31 12:40:41;;;;;;;3.16;0.66;;;;;;;26.75;22.54;99605.81;2022100;80;20194;-75
2021/05/31 12:43:44;;;;;;;1.50;0.68;;;;;;;26.74;22.33;99598.72;2022054;80;20183;-75
2021/05/31 12:46:47;;;;;;;3.00;0.56;;;;;;;26.70;22.37;99597.25;2020564;77;21079;-75
2021/05/31 12:49:52;;;;;;;1.99;0.60;;;;;;;26.67;23.16;99588.59;2022616;80;20627;-74
2021/05/31 12:52:55;;;;;;;1.91;0.70;;;;;;;26.77;23.39;99592.38;2022389;80;20183;-74
2021/05/31 12:56:00;;;;;;;1.79;0.61;;;;;;;26.86;24.18;99599.72;2022078;80;20694;-74
2021/05/31 12:59:14;;;;;;;1.00;0.60;;;;;;;26.82;24.61;99584.91;2023294;80;20282;-74
2021/05/31 13:02:19;;;;;;;3.53;0.65;;;;;;;26.79;24.18;99571.81;2019347;77;24443;-74
2021/05/31 13:05:23;;;;;;;4.47;0.76;;;;;;;26.82;23.26;99560.94;2020612;80;20197;-74
2021/05/31 13:08:40;;;;;;;2.38;1.20;;;;;;;26.95;23.25;99571.59;2022767;80;20256;-74
2021/05/31 13:11:45;;;;;;;3.64;1.49;;;;;;;26.88;22.67;99567.63;2022108;80;20187;-73
2021/05/31 13:14:48;;;;;;;2.51;1.10;;;;;;;26.98;23.95;99563.38;2022760;80;20236;-80
2021/05/31 13:17:51;;;;;;;2.39;0.66;;;;;;;26.99;23.86;99551.75;2021685;77;22178;-74
2021/05/31 13:20:56;;;;;;;3.38;0.60;;;;;;;26.98;23.63;99553.59;2023389;80;20596;-74
2021/05/31 13:23:58;;;;;;;1.29;0.66;;;;;;;26.85;23.33;99559.84;2023436;80;20732;-74
2021/05/31 13:27:18;;;;;;;2.92;0.60;;;;;;;26.79;24.28;99567.31;2022530;80;20192;-74
2021/05/31 13:30:23;;;;;;;3.50;0.68;;;;;;;26.82;23.99;99555.59;2022074;77;20937;-74
2021/05/31 13:33:26;;;;;;;2.86;0.61;;;;;;;26.97;25.19;99549.22;2022342;80;20667;-74
2021/05/31 13:36:30;;;;;;;3.36;0.60;;;;;;;27.00;23.76;99538.38;2023210;80;20206;-74
2021/05/31 13:39:34;;;;;;;5.66;0.89;;;;;;;26.91;23.92;99540.78;2022502;80;20356;-74
2021/05/31 13:42:48;;;;;;;1.20;0.70;;;;;;;26.98;24.00;99534.06;2022308;80;20179;-74
2021/05/31 13:45:53;;;;;;;4.25;1.01;;;;;;;26.97;23.96;99543.88;2023479;77;22402;-73
2021/05/31 13:48:56;;;;;;;1.83;0.60;;;;;;;26.74;23.35;99537.44;2022330;80;20191;-74
2021/05/31 13:51:58;;;;;;;3.36;0.73;;;;;;;26.75;24.39;99540.97;2022182;80;20260;-74
2021/05/31 13:55:03;;;;;;;3.09;0.70;;;;;;;26.74;24.08;99532.13;2020803;80;20279;-74
2021/05/31 13:58:07;;;;;;;3.03;0.93;;;;;;;26.84;24.43;99534.16;2024403;80;20315;-73
2021/05/31 14:01:10;;;;;;;2.78;0.59;;;;;;;26.78;25.04;99527.47;2021295;77;51109;-75
2021/05/31 14:04:12;;;;;;;2.49;0.61;;;;;;;26.63;23.34;99525.84;2023177;80;20496;-73
2021/05/31 14:07:15;;;;;;;6.36;0.75;;;;;;;26.61;24.33;99514.44;2022361;80;20645;-74
2021/05/31 14:10:18;;;;;;;3.83;0.70;;;;;;;26.70;24.31;99511.13;2022894;80;20171;-74
2021/05/31 14:13:21;;;;;;;5.45;0.70;;;;;;;26.81;24.83;99513.91;2021820;80;20196;-74
2021/05/31 14:16:24;;;;;;;2.28;0.60;;;;;;;26.84;25.05;99508.38;2020891;78;25143;-74
2021/05/31 14:19:47;;;;;;;3.42;0.89;;;;;;;26.90;24.39;99510.59;2022216;80;20210;-73
2021/05/31 14:22:54;;;;;;;2.35;0.74;;;;;;;26.90;23.71;99523.06;2022084;80;20207;-73
2021/05/31 14:25:56;;;;;;;7.76;1.26;;;;;;;26.78;23.84;99501.66;2021962;80;20191;-75
2021/05/31 14:28:59;;;;;;;1.60;0.68;;;;;;;26.82;23.51;99494.31;2022736;80;20199;-74
2021/05/31 14:32:02;;;;;;;2.99;0.68;;;;;;;26.72;23.67;99493.22;2021685;77;21568;-74
2021/05/31 14:35:06;;;;;;;1.59;0.70;;;;;;;26.78;23.82;99498.16;2022607;80;20302;-75
2021/05/31 14:38:10;;;;;;;2.25;0.64;;;;;;;26.75;23.75;99490.34;2022916;80;20264;-75
2021/05/31 14:41:13;;;;;;;1.99;0.50;;;;;;;26.75;23.75;99499.22;2022614;80;20193;-74
2021/05/31 14:44:16;;;;;;;4.46;0.63;;;;;;;26.71;23.95;99494.19;2022638;80;20753;-74
2021/05/31 14:47:19;;;;;;;3.71;0.60;;;;;;;26.69;24.28;99504.09;2021347;77;22556;-79
2021/05/31 14:50:22;;;;;;;1.30;0.61;;;;;;;26.77;24.11;99505.28;2022979;80;20266;-79
2021/05/31 14:53:25;;;;;;;0.56;0.50;;;;;;;26.82;23.66;99491.66;2022386;80;20610;-79